Calgary International Airport
CYYC : now visible

Airfield :











YOU CAN JOIN US ON...

 
LOGIN :

Register | Disclaimer

   EN    FR    IT 

 









Legend :    VFR   Marginal VFR   IFR   Intensive IFR   Very Intensive IFR
Visi :
Ceiling :
>= 8 km
>= 3000ft
5 to 8 km
1000 to 3000 ft
1500m to 5 km
500 to 1000 ft
800 to 1500m
200 to 500 ft
< 800m
< 200 ft
Symbols :   Thunderstorms  Fog  Heavy snow  Heavy precipitations  Wind > 20 kt







- Airport Elevation : 3557 ft
- IATA code : YYC


CYYC - Calgary International

CURRENT METAR :
  • 261400Z VRB02KT 40SM FEW190 SCT300 06/02 A3015 RMK AC2CI2 SLP234

EXPIRED METARs :
  • 261300Z 14002KT 30SM FEW160 FEW230 03/01 A3014 RMK AC1CI1 SLP237
  • 261200Z 00000KT 30SM FEW160 SCT230 02/M00 A3014 RMK AC1CI2 SLP238

TAF TAF CYYC
Valid from the 26 at 15:00 until the 27 at 12:00 UTC


261438Z 2615/2712 VRB03KT P6SM FEW190
BECMG 2616/2618 11008KT
FM262000 13008KT P6SM SCT060
FM270400 23005KT P6SM SKC RMK NXT FCST BY 261800Z
CZEG FIR / North America



MET'MAP, your aeronautical weather chart ! - Copyright ORBIFLY December 2007 - Disclaimer

ORBIFLY MET'MAP TEAM :

Programming & Development : Alexandra Zaïnal
Concept & Development : Baudouin d'Aumeries
Co-Development & Prog : Marc-Olivier Méhu
Technical & hardware support : Manuel Goepfert

Contact : metmap@orbifly.com




SOURCES & CREDITS :

   NOAA       Earth
Advisory